METAR (acronimo di METeorological Air Report) è un messaggio meteo emesso nella maggior parte dei casi in ambito aeroportuale

GMME - Rabat, Morocco
Ultimo Aggiornamento: Giovedì 04 Giugno 2020 03:00 CEST
Parzialmente Nuvoloso
Parzialmente Nuvoloso
 Wind from Nord-Ovest
Vento: Nord-Ovest 7 km/h
Temperatura: 15°C
Punto di Rugiada: 15°C
Umidità: 100%
Barometro: 1013 hPa
Nuvole: Parzialmente Nuvoloso
Visibilità: 8 km
Nuvole nel Dettaglio: Parzialmente Nuvoloso 488 m
2020/06/04 01:00 GMME 040100Z 31004KT 8000 SCT016 15/15 Q1013 NOSIG
DTTA - Tunis-Carthage International Airport, Tunisia
Ultimo Aggiornamento: Giovedì 04 Giugno 2020 03:00 CEST
Qualche Nuvola
Qualche Nuvola
 Wind from Sud-Sud-Est
Vento: Sud-Sud-Est 7 km/h
Temperatura: 21°C
Punto di Rugiada: 14°C
Umidità: 64%
Barometro: 1007 hPa
Nuvole: Qualche Nuvola
Visibilità: 10 km
Nuvole nel Dettaglio: Qualche Nuvola 1006 m
2020/06/04 01:00 DTTA 040100Z 16004KT 9999 FEW033 21/14 Q1007
HSSS - Khartoum, Sudan
Ultimo Aggiornamento: Giovedì 04 Giugno 2020 03:00 CEST
Sereno
Sereno
 Wind from Nord-Nord-Est
Vento: Nord-Nord-Est 13 km/h
Temperatura: 31°C
Punto di Rugiada: -3°C
Umidità: 11%
Barometro: 1007 hPa
Condizioni: Sereno
Visibilità: superiore a 10 km
2020/06/04 01:00 HSSS 040100Z 02007KT CAVOK 31/M03 Q1007 NOSIG
 
DAAG - Algiers Houari Boumediene Airport, Algeria
Ultimo Aggiornamento: Giovedì 04 Giugno 2020 03:00 CEST
Qualche Nuvola
Qualche Nuvola
 Wind from calm
Vento: Calma
Temperatura: 15°C
Punto di Rugiada: 14°C
Umidità: 94%
Barometro: 1006 hPa
Nuvole: Qualche Nuvola
Visibilità: 7 km
Nuvole nel Dettaglio: Qualche Nuvola 396 m
2020/06/04 01:00 DAAG 040100Z 00000KT 7000 FEW013 15/14 Q1006
HECA - Cairo International Airport, Egypt
Ultimo Aggiornamento: Giovedì 04 Giugno 2020 03:30 CEST
Sereno
Sereno
 Wind from Nord-Est
Vento: Nord-Est 24 km/h
Temperatura: 21°C
Punto di Rugiada: 15°C
Umidità: 69%
Barometro: 1011 hPa
Condizioni: Sereno
Visibilità: superiore a 10 km
2020/06/04 01:30 HECA 040130Z 05013KT CAVOK 21/15 Q1011 NOSIG
FTTJ - N’Djamena, Chad
Ultimo Aggiornamento: Giovedì 04 Giugno 2020 03:00 CEST
Parzialmente Nuvoloso
Parzialmente Nuvoloso
 Wind from Sud-Sud-Est
Vento: Sud-Sud-Est 20 km/h
Temperatura: 31°C
Heat Index: 34°C
Punto di Rugiada: 21°C
Umidità: 55%
Barometro: 1007 hPa
Nuvole: Parzialmente Nuvoloso
Visibilità: 8 km
2020/06/04 01:00 FTTJ 040100Z 16011KT 8000 NSC 31/21 Q1007 NOSIG
 
FEFF - Bangui, Central African Republic
Ultimo Aggiornamento: Mercoledì 03 Giugno 2020 22:00 CEST
Dati non Recenti
Parzialmente Nuvoloso
Parzialmente Nuvoloso
 Wind from varies
Vento: variabile 4 km/h
Temperatura: 27°C
Heat Index: 29°C
Punto di Rugiada: 22°C
Umidità: 74%
Barometro: 1011 hPa
Nuvole: Parzialmente Nuvoloso
Visibilità: 7 km
2020/06/03 20:00 FEFF 032000Z VRB02KT 7000 NSC 27/22 Q1011 NOSIG
HBBA - Bujumbura, Burundi
Ultimo Aggiornamento: Mercoledì 03 Giugno 2020 11:00 CEST
Dati non Recenti
Qualche Nuvola
Qualche Nuvola
 Wind from Sud-Sud-Ovest
Vento: Sud-Sud-Ovest 4 km/h
Barometro: 1016 hPa
Nuvole: Qualche Nuvola
Visibilità: 9 km
Nuvole nel Dettaglio: Qualche Nuvola 762 m
2020/06/03 09:00 HBBA 030900Z 20002KT 9000 FEW025 Q1016 NOSIG
FMEE - Saint-Denis, Reunion
Ultimo Aggiornamento: Giovedì 04 Giugno 2020 03:00 CEST
Sereno
Sereno
 Wind from Sud-Est
Vento: Sud-Est 24 km/h
Temperatura: 21°C
Punto di Rugiada: 14°C
Umidità: 64%
Barometro: 1020 hPa
Condizioni: Sereno
Visibilità: superiore a 10 km
2020/06/04 01:00 FMEE 040100Z AUTO 14013KT CAVOK 21/14 Q1020 NOSIG
 
DIAP - Abidjan, Ivory coast
Ultimo Aggiornamento: Giovedì 04 Giugno 2020 03:00 CEST
Sereno
Sereno
 Wind from Ovest-Sud-Ovest
Vento: Ovest-Sud-Ovest 7 km/h
Temperatura: 27°C
Heat Index: 32°C
Punto di Rugiada: 26°C
Umidità: 94%
Barometro: 1012 hPa
Condizioni: Sereno
Visibilità: superiore a 10 km
2020/06/04 01:00 DIAP 040100Z 25004KT CAVOK 27/26 Q1012 NOSIG
GUCY - Conakry, Guinea
Ultimo Aggiornamento: Mercoledì 03 Giugno 2020 18:00 CEST
Dati non Recenti
Parzialmente Nuvoloso
Parzialmente Nuvoloso
 Wind from Ovest
Vento: Ovest 15 km/h
Temperatura: 31°C
Heat Index: 38°C
Punto di Rugiada: 25°C
Umidità: 70%
Barometro: 1011 hPa
Nuvole: Parzialmente Nuvoloso
Visibilità: 10 km
Nuvole nel Dettaglio: Parzialmente Nuvoloso 457 m
2020/06/03 16:00 GUCY 031600Z 27008KT 9999 SCT015 31/25 Q1011 NOSIG
GABS - Bamako, Mali
Ultimo Aggiornamento: Giovedì 04 Giugno 2020 03:00 CEST
Sereno
Sereno
 Wind from Sud-Ovest
Vento: Sud-Ovest 9 km/h
Temperatura: 27°C
Heat Index: 29°C
Punto di Rugiada: 22°C
Umidità: 74%
Barometro: 1013 hPa
Condizioni: Sereno
Visibilità: superiore a 10 km
2020/06/04 01:00 GABS 040100Z 22005KT CAVOK 27/22 Q1013 NOSIG
 
DRRN - Niamey, Niger
Ultimo Aggiornamento: Giovedì 04 Giugno 2020 03:00 CEST
Sereno
Sereno
 Wind from Ovest-Sud-Ovest
Vento: Ovest-Sud-Ovest 15 km/h
Temperatura: 34°C
Punto di Rugiada: 18°C
Umidità: 39%
Barometro: 1009 hPa
Condizioni: Sereno
Visibilità: superiore a 10 km
2020/06/04 01:00 DRRN 040100Z 24008KT CAVOK 34/18 Q1009 NOSIG
DFFD - Ouagadougou, Burkina Faso
Ultimo Aggiornamento: Giovedì 04 Giugno 2020 03:00 CEST
Sereno
Sereno
 Wind from Sud-Sud-Ovest
Vento: Sud-Sud-Ovest 9 km/h
Temperatura: 32°C
Heat Index: 36°C
Punto di Rugiada: 21°C
Umidità: 52%
Barometro: 1011 hPa
Condizioni: Sereno
Visibilità: superiore a 10 km
2020/06/04 01:00 DFFD 040100Z 21005KT CAVOK 32/21 Q1011 NOSIG
DNMM - Lagos, Nigeria
Ultimo Aggiornamento: Giovedì 04 Giugno 2020 03:00 CEST
Qualche Nuvola
Qualche Nuvola
 Wind from calm
Vento: Calma
Temperatura: 26°C
Punto di Rugiada: 25°C
Umidità: 94%
Barometro: 1013 hPa
Nuvole: Qualche Nuvola
Visibilità: 10 km
Nuvole nel Dettaglio: Qualche Nuvola 305 m
2020/06/04 01:00 DNMM 040100Z 00000KT 9999 FEW010 26/25 Q1013 NOSIG
 
HKJK - Nairobi Jomo Kenyatta International Airport, Kenya
Ultimo Aggiornamento: Giovedì 04 Giugno 2020 03:00 CEST
Parzialmente Nuvoloso
Parzialmente Nuvoloso
 Wind from Sud-Sud-Ovest
Vento: Sud-Sud-Ovest 9 km/h
Temperatura: 14°C
Punto di Rugiada: 12°C
Umidità: 88%
Barometro: 1023 hPa
Nuvole: Parzialmente Nuvoloso
Visibilità: 10 km
Nuvole nel Dettaglio: Parzialmente Nuvoloso 457 m
2020/06/04 01:00 HKJK 040100Z 21005KT 9999 SCT015 14/12 Q1023 NOSIG
FZAA - Kinshasa, Congo
Ultimo Aggiornamento: Giovedì 04 Giugno 2020 00:00 CEST
Dati non Recenti
Qualche Nuvola
Qualche Nuvola
 Wind from calm
Vento: Calma
Temperatura: 27°C
Heat Index: 31°C
Punto di Rugiada: 24°C
Umidità: 84%
Barometro: 1014 hPa
Nuvole: Qualche Nuvola
Visibilità: 6 km
Nuvole nel Dettaglio: Qualche Nuvola 488 m
2020/06/03 22:00 FZAA 032200Z 00000KT 6000 FEW016 27/24 Q1014 NOSIG
FLKK - Lusaka, Zambia
Ultimo Aggiornamento: Giovedì 04 Giugno 2020 02:00 CEST
Dati non Recenti
Sereno
Sereno
 Wind from Sud-Est
Vento: Sud-Est 6 km/h
Temperatura: 12°C
Punto di Rugiada: 9°C
Umidità: 82%
Barometro: 1023 hPa
Condizioni: Sereno
Visibilità: superiore a 10 km
2020/06/04 00:00 FLKK 040000Z 13003KT CAVOK 12/09 Q1023
 
FAOR - Johannesburg, South Africa
Ultimo Aggiornamento: Giovedì 04 Giugno 2020 03:00 CEST
Sereno
Sereno
 Wind from Nord-Nord-Ovest
Vento: Nord-Nord-Ovest 6 km/h
Temperatura: 11°C
Punto di Rugiada: -1°C
Umidità: 44%
Barometro: 1027 hPa
Condizioni: Sereno
Visibilità: superiore a 10 km
2020/06/04 01:00 FAOR 040100Z 33003KT CAVOK 11/M01 Q1027 NOSIG
FACT - Cape Town, South Africa
Ultimo Aggiornamento: Giovedì 04 Giugno 2020 03:06 CEST
Sereno
Sereno
 Wind from Sud-Est
Vento: Sud-Est 4 km/h
Temperatura: 8°C
Punto di Rugiada: 7°C
Umidità: 93%
Barometro: 1018 hPa
Condizioni: Sereno
Visibilità: superiore a 10 km
2020/06/04 01:06 FACT 040106Z 14002KT CAVOK 08/07 Q1018 NOSIG
FIMP - Mauritius Sir Seewoosagur Ramgoolam International Airport, Mauritius
Ultimo Aggiornamento: Giovedì 04 Giugno 2020 03:00 CEST
Parzialmente Nuvoloso
Parzialmente Nuvoloso
 Wind from Est-Sud-Est
Vento: Est-Sud-Est 19 km/h
Temperatura: 22°C
Punto di Rugiada: 13°C
Umidità: 57%
Barometro: 1021 hPa
Nuvole: Parzialmente Nuvoloso
Visibilità: 10 km
Nuvole nel Dettaglio: Parzialmente Nuvoloso 518 m
2020/06/04 01:00 FIMP 040100Z 12010KT 9999 SCT017 22/13 Q1021